sensor_id;sensor_type;location;lat;lon;timestamp;P1;durP1;ratioP1;P2;durP2;ratioP2
67164;SDS011;54093;50.014;19.984;2023-05-10T00:02:33;6.40;;;5.07;;
67164;SDS011;54093;50.014;19.984;2023-05-10T00:11:54;5.00;;;4.60;;
67164;SDS011;54093;50.014;19.984;2023-05-10T00:21:15;6.85;;;5.50;;
67164;SDS011;54093;50.014;19.984;2023-05-10T00:30:36;5.80;;;5.30;;
67164;SDS011;54093;50.014;19.984;2023-05-10T00:39:57;6.10;;;5.60;;
67164;SDS011;54093;50.014;19.984;2023-05-10T00:49:18;15.32;;;5.40;;
67164;SDS011;54093;50.014;19.984;2023-05-10T00:58:40;5.22;;;4.22;;
67164;SDS011;54093;50.014;19.984;2023-05-10T01:08:01;8.32;;;4.60;;
67164;SDS011;54093;50.014;19.984;2023-05-10T01:17:23;5.65;;;4.03;;
67164;SDS011;54093;50.014;19.984;2023-05-10T01:46:09;4.10;;;3.90;;
67164;SDS011;54093;50.014;19.984;2023-05-10T01:55:35;5.80;;;4.65;;
67164;SDS011;54093;50.014;19.984;2023-05-10T02:05:06;13.23;;;3.72;;
67164;SDS011;54093;50.014;19.984;2023-05-10T02:14:29;5.22;;;4.40;;
67164;SDS011;54093;50.014;19.984;2023-05-10T02:23:52;5.43;;;4.93;;
67164;SDS011;54093;50.014;19.984;2023-05-10T02:33:14;8.40;;;6.43;;
67164;SDS011;54093;50.014;19.984;2023-05-10T02:42:37;4.68;;;4.38;;
67164;SDS011;54093;50.014;19.984;2023-05-10T02:52:00;4.85;;;4.47;;
67164;SDS011;54093;50.014;19.984;2023-05-10T03:01:24;4.88;;;4.47;;
67164;SDS011;54093;50.014;19.984;2023-05-10T03:10:50;7.88;;;4.45;;
67164;SDS011;54093;50.014;19.984;2023-05-10T03:20:38;5.63;;;5.13;;
67164;SDS011;54093;50.014;19.984;2023-05-10T03:30:02;10.20;;;5.57;;
67164;SDS011;54093;50.014;19.984;2023-05-10T03:39:24;3.92;;;3.65;;
67164;SDS011;54093;50.014;19.984;2023-05-10T03:48:45;4.80;;;4.15;;
67164;SDS011;54093;50.014;19.984;2023-05-10T03:58:06;4.25;;;3.95;;
67164;SDS011;54093;50.014;19.984;2023-05-10T04:07:30;3.60;;;3.30;;
67164;SDS011;54093;50.014;19.984;2023-05-10T04:16:51;3.65;;;3.15;;
67164;SDS011;54093;50.014;19.984;2023-05-10T04:26:12;3.50;;;3.20;;
67164;SDS011;54093;50.014;19.984;2023-05-10T04:35:34;5.05;;;3.97;;
67164;SDS011;54093;50.014;19.984;2023-05-10T04:44:55;2.78;;;2.58;;
67164;SDS011;54093;50.014;19.984;2023-05-10T04:54:16;3.30;;;3.03;;
67164;SDS011;54093;50.014;19.984;2023-05-10T05:03:37;5.45;;;3.95;;
67164;SDS011;54093;50.014;19.984;2023-05-10T05:12:58;8.57;;;3.05;;
67164;SDS011;54093;50.014;19.984;2023-05-10T05:22:19;3.85;;;3.47;;
67164;SDS011;54093;50.014;19.984;2023-05-10T05:31:47;10.48;;;3.55;;
67164;SDS011;54093;50.014;19.984;2023-05-10T05:41:08;4.65;;;2.80;;
67164;SDS011;54093;50.014;19.984;2023-05-10T05:50:29;3.90;;;3.60;;
67164;SDS011;54093;50.014;19.984;2023-05-10T05:59:49;3.40;;;3.10;;
67164;SDS011;54093;50.014;19.984;2023-05-10T06:09:11;3.80;;;3.50;;
67164;SDS011;54093;50.014;19.984;2023-05-10T06:18:32;2.53;;;2.42;;
67164;SDS011;54093;50.014;19.984;2023-05-10T06:27:53;4.45;;;3.00;;
67164;SDS011;54093;50.014;19.984;2023-05-10T06:37:17;3.20;;;2.97;;
67164;SDS011;54093;50.014;19.984;2023-05-10T06:46:38;8.55;;;2.75;;
67164;SDS011;54093;50.014;19.984;2023-05-10T06:55:59;8.23;;;3.03;;
67164;SDS011;54093;50.014;19.984;2023-05-10T07:05:20;2.83;;;2.72;;
67164;SDS011;54093;50.014;19.984;2023-05-10T07:14:41;3.38;;;3.03;;
67164;SDS011;54093;50.014;19.984;2023-05-10T07:24:02;3.05;;;2.85;;
67164;SDS011;54093;50.014;19.984;2023-05-10T07:33:23;3.00;;;2.63;;
67164;SDS011;54093;50.014;19.984;2023-05-10T07:42:44;2.80;;;2.70;;
67164;SDS011;54093;50.014;19.984;2023-05-10T07:52:05;5.47;;;3.10;;
67164;SDS011;54093;50.014;19.984;2023-05-10T08:01:26;7.80;;;3.20;;
67164;SDS011;54093;50.014;19.984;2023-05-10T08:10:50;5.68;;;2.75;;
67164;SDS011;54093;50.014;19.984;2023-05-10T08:20:11;2.58;;;2.40;;
67164;SDS011;54093;50.014;19.984;2023-05-10T08:29:33;3.25;;;2.47;;
67164;SDS011;54093;50.014;19.984;2023-05-10T08:38:54;2.63;;;2.10;;
67164;SDS011;54093;50.014;19.984;2023-05-10T08:48:15;1.95;;;1.85;;
67164;SDS011;54093;50.014;19.984;2023-05-10T08:57:37;2.67;;;2.00;;
67164;SDS011;54093;50.014;19.984;2023-05-10T09:06:58;1.55;;;1.55;;
67164;SDS011;54093;50.014;19.984;2023-05-10T09:16:19;1.30;;;1.30;;
67164;SDS011;54093;50.014;19.984;2023-05-10T09:25:43;1.60;;;1.50;;
67164;SDS011;54093;50.014;19.984;2023-05-10T09:35:14;3.17;;;1.37;;
67164;SDS011;54093;50.014;19.984;2023-05-10T09:44:36;1.30;;;1.30;;
67164;SDS011;54093;50.014;19.984;2023-05-10T09:54:11;1.60;;;1.50;;
67164;SDS011;54093;50.014;19.984;2023-05-10T10:03:32;1.70;;;1.33;;
67164;SDS011;54093;50.014;19.984;2023-05-10T10:12:54;1.48;;;1.33;;
67164;SDS011;54093;50.014;19.984;2023-05-10T10:22:16;1.30;;;1.30;;
67164;SDS011;54093;50.014;19.984;2023-05-10T10:41:30;1.90;;;1.80;;
67164;SDS011;54093;50.014;19.984;2023-05-10T10:50:55;1.73;;;1.42;;
67164;SDS011;54093;50.014;19.984;2023-05-10T11:00:25;2.28;;;1.27;;
67164;SDS011;54093;50.014;19.984;2023-05-10T11:10:04;1.50;;;1.27;;
67164;SDS011;54093;50.014;19.984;2023-05-10T11:19:27;1.58;;;1.50;;
67164;SDS011;54093;50.014;19.984;2023-05-10T11:28:48;3.13;;;1.88;;
67164;SDS011;54093;50.014;19.984;2023-05-10T11:38:12;1.70;;;1.60;;
67164;SDS011;54093;50.014;19.984;2023-05-10T11:47:34;1.80;;;1.70;;
67164;SDS011;54093;50.014;19.984;2023-05-10T11:56:56;1.85;;;1.70;;
67164;SDS011;54093;50.014;19.984;2023-05-10T12:06:17;2.35;;;1.70;;
67164;SDS011;54093;50.014;19.984;2023-05-10T12:15:42;2.28;;;1.73;;
67164;SDS011;54093;50.014;19.984;2023-05-10T12:25:04;3.75;;;1.63;;
67164;SDS011;54093;50.014;19.984;2023-05-10T12:34:32;6.82;;;1.60;;
67164;SDS011;54093;50.014;19.984;2023-05-10T12:43:55;2.28;;;1.60;;
67164;SDS011;54093;50.014;19.984;2023-05-10T12:53:16;3.67;;;1.48;;
67164;SDS011;54093;50.014;19.984;2023-05-10T13:02:37;1.60;;;1.50;;
67164;SDS011;54093;50.014;19.984;2023-05-10T13:11:58;1.58;;;1.42;;
67164;SDS011;54093;50.014;19.984;2023-05-10T13:21:19;4.22;;;1.40;;
67164;SDS011;54093;50.014;19.984;2023-05-10T13:30:40;1.65;;;1.55;;
67164;SDS011;54093;50.014;19.984;2023-05-10T13:40:01;2.58;;;2.00;;
67164;SDS011;54093;50.014;19.984;2023-05-10T13:49:22;3.58;;;1.40;;
67164;SDS011;54093;50.014;19.984;2023-05-10T13:58:43;1.75;;;1.70;;
67164;SDS011;54093;50.014;19.984;2023-05-10T14:08:04;3.00;;;1.40;;
67164;SDS011;54093;50.014;19.984;2023-05-10T14:17:25;1.50;;;1.50;;
67164;SDS011;54093;50.014;19.984;2023-05-10T14:26:46;1.40;;;1.40;;
67164;SDS011;54093;50.014;19.984;2023-05-10T14:36:07;1.65;;;1.63;;
67164;SDS011;54093;50.014;19.984;2023-05-10T14:45:28;1.60;;;1.50;;
67164;SDS011;54093;50.014;19.984;2023-05-10T14:54:49;3.13;;;1.40;;
67164;SDS011;54093;50.014;19.984;2023-05-10T15:04:10;1.60;;;1.50;;
67164;SDS011;54093;50.014;19.984;2023-05-10T15:13:34;1.55;;;1.42;;
67164;SDS011;54093;50.014;19.984;2023-05-10T15:23:10;1.38;;;1.38;;
67164;SDS011;54093;50.014;19.984;2023-05-10T15:32:31;1.25;;;1.25;;
67164;SDS011;54093;50.014;19.984;2023-05-10T15:41:52;1.48;;;1.48;;
67164;SDS011;54093;50.014;19.984;2023-05-10T15:51:14;1.52;;;1.20;;
67164;SDS011;54093;50.014;19.984;2023-05-10T16:00:37;1.58;;;1.52;;
67164;SDS011;54093;50.014;19.984;2023-05-10T16:09:58;1.50;;;1.40;;
67164;SDS011;54093;50.014;19.984;2023-05-10T16:19:23;4.43;;;1.40;;
67164;SDS011;54093;50.014;19.984;2023-05-10T16:28:44;1.50;;;1.42;;
67164;SDS011;54093;50.014;19.984;2023-05-10T16:38:06;1.40;;;1.40;;
67164;SDS011;54093;50.014;19.984;2023-05-10T16:47:27;4.13;;;1.75;;
67164;SDS011;54093;50.014;19.984;2023-05-10T16:56:47;1.75;;;1.63;;
67164;SDS011;54093;50.014;19.984;2023-05-10T17:06:10;1.65;;;1.55;;
67164;SDS011;54093;50.014;19.984;2023-05-10T17:15:31;1.70;;;1.60;;
67164;SDS011;54093;50.014;19.984;2023-05-10T17:24:55;1.85;;;1.70;;
67164;SDS011;54093;50.014;19.984;2023-05-10T17:34:16;2.92;;;1.60;;
67164;SDS011;54093;50.014;19.984;2023-05-10T17:43:37;2.33;;;1.92;;
67164;SDS011;54093;50.014;19.984;2023-05-10T17:52:59;1.95;;;1.85;;
67164;SDS011;54093;50.014;19.984;2023-05-10T18:02:20;1.85;;;1.75;;
67164;SDS011;54093;50.014;19.984;2023-05-10T18:11:41;1.45;;;1.45;;
67164;SDS011;54093;50.014;19.984;2023-05-10T18:21:02;2.30;;;2.10;;
67164;SDS011;54093;50.014;19.984;2023-05-10T18:30:23;1.75;;;1.65;;
67164;SDS011;54093;50.014;19.984;2023-05-10T18:39:44;2.33;;;2.13;;
67164;SDS011;54093;50.014;19.984;2023-05-10T18:49:05;3.28;;;2.42;;
67164;SDS011;54093;50.014;19.984;2023-05-10T18:58:28;2.50;;;2.30;;
67164;SDS011;54093;50.014;19.984;2023-05-10T19:07:49;4.53;;;2.50;;
67164;SDS011;54093;50.014;19.984;2023-05-10T19:17:10;2.88;;;2.47;;
67164;SDS011;54093;50.014;19.984;2023-05-10T19:26:31;2.80;;;2.60;;
67164;SDS011;54093;50.014;19.984;2023-05-10T19:35:52;2.90;;;2.63;;
67164;SDS011;54093;50.014;19.984;2023-05-10T19:45:13;2.55;;;2.35;;
67164;SDS011;54093;50.014;19.984;2023-05-10T19:54:34;3.15;;;2.72;;
67164;SDS011;54093;50.014;19.984;2023-05-10T20:03:55;5.07;;;3.60;;
67164;SDS011;54093;50.014;19.984;2023-05-10T20:13:16;4.03;;;2.97;;
67164;SDS011;54093;50.014;19.984;2023-05-10T20:22:37;6.50;;;2.85;;
67164;SDS011;54093;50.014;19.984;2023-05-10T20:31:58;3.38;;;3.08;;
67164;SDS011;54093;50.014;19.984;2023-05-10T20:41:19;2.85;;;2.67;;
67164;SDS011;54093;50.014;19.984;2023-05-10T20:50:40;5.38;;;3.60;;
67164;SDS011;54093;50.014;19.984;2023-05-10T21:00:01;5.20;;;3.70;;
67164;SDS011;54093;50.014;19.984;2023-05-10T21:09:22;3.58;;;3.28;;
67164;SDS011;54093;50.014;19.984;2023-05-10T21:18:43;4.75;;;3.58;;
67164;SDS011;54093;50.014;19.984;2023-05-10T21:28:04;3.55;;;3.25;;
67164;SDS011;54093;50.014;19.984;2023-05-10T21:37:28;5.78;;;3.42;;
67164;SDS011;54093;50.014;19.984;2023-05-10T21:46:49;3.20;;;3.00;;
67164;SDS011;54093;50.014;19.984;2023-05-10T21:56:10;5.63;;;3.17;;
67164;SDS011;54093;50.014;19.984;2023-05-10T22:05:31;4.03;;;2.75;;
67164;SDS011;54093;50.014;19.984;2023-05-10T22:14:52;3.20;;;2.95;;
67164;SDS011;54093;50.014;19.984;2023-05-10T22:24:13;3.15;;;2.95;;
67164;SDS011;54093;50.014;19.984;2023-05-10T22:33:34;2.67;;;2.47;;
67164;SDS011;54093;50.014;19.984;2023-05-10T22:42:54;9.35;;;3.33;;
67164;SDS011;54093;50.014;19.984;2023-05-10T22:52:15;3.05;;;2.85;;
67164;SDS011;54093;50.014;19.984;2023-05-10T23:01:36;3.53;;;3.03;;
67164;SDS011;54093;50.014;19.984;2023-05-10T23:10:57;3.20;;;3.00;;
67164;SDS011;54093;50.014;19.984;2023-05-10T23:20:18;3.72;;;3.40;;
67164;SDS011;54093;50.014;19.984;2023-05-10T23:29:39;3.30;;;3.10;;
67164;SDS011;54093;50.014;19.984;2023-05-10T23:39:00;3.00;;;2.80;;
67164;SDS011;54093;50.014;19.984;2023-05-10T23:48:21;3.22;;;3.03;;
67164;SDS011;54093;50.014;19.984;2023-05-10T23:57:42;4.60;;;3.20;;
